Time;durP1;ratioP1;P1;durP2;ratioP2;P2;SDS_P1;SDS_P2;PMS_P1;PMS_P2;Temp;Humidity;BMP_temperature;BMP_pressure;BME280_temperature;BME280_humidity;BME280_pressure;Samples;Min_cycle;Max_cycle;Signal;HPM_P1;HPM_P2
2021/09/13 00:00:56;;;;;;;11.03;7.83;;;16.40;90.20;;;;;;4934539;29;20714;-74
2021/09/13 00:03:23;;;;;;;8.20;5.93;;;16.50;90.20;;;;;;4917488;29;20216;-74
2021/09/13 00:05:48;;;;;;;10.23;6.77;;;16.40;90.20;;;;;;4934171;29;20888;-73
2021/09/13 00:08:14;;;;;;;11.10;6.10;;;16.40;90.20;;;;;;4933472;29;20269;-73
2021/09/13 00:10:42;;;;;;;11.40;7.70;;;16.40;90.30;;;;;;4934635;29;20209;-74
2021/09/13 00:13:09;;;;;;;12.20;6.60;;;16.40;90.30;;;;;;4935238;29;20591;-74
2021/09/13 00:15:36;;;;;;;9.03;6.17;;;16.30;90.30;;;;;;4917429;29;20553;-74
2021/09/13 00:18:02;;;;;;;8.33;6.07;;;16.30;90.40;;;;;;4934361;29;20877;-74
2021/09/13 00:20:28;;;;;;;10.43;6.70;;;16.30;90.70;;;;;;4934402;29;20933;-74
2021/09/13 00:22:55;;;;;;;9.80;6.33;;;16.20;90.50;;;;;;4934174;29;20494;-74
2021/09/13 00:25:21;;;;;;;10.23;6.30;;;16.10;90.70;;;;;;4934386;29;20907;-74
2021/09/13 00:27:48;;;;;;;9.03;6.27;;;16.00;90.90;;;;;;4934225;29;20174;-73
2021/09/13 00:30:15;;;;;;;8.60;6.43;;;16.00;91.10;;;;;;4933935;29;20901;-75
2021/09/13 00:32:41;;;;;;;11.10;6.13;;;16.00;91.20;;;;;;4932890;29;20496;-75
2021/09/13 00:35:08;;;;;;;8.57;6.23;;;16.00;91.20;;;;;;4932968;29;20545;-76
2021/09/13 00:37:34;;;;;;;8.57;5.93;;;16.00;91.10;;;;;;4934231;29;20509;-74
2021/09/13 00:40:06;;;;;;;9.07;6.33;;;16.00;91.00;;;;;;4933935;29;20428;-74
2021/09/13 00:42:35;;;;;;;11.03;6.17;;;16.00;90.90;;;;;;4934130;29;20413;-74
2021/09/13 00:45:03;;;;;;;10.30;6.30;;;16.00;91.00;;;;;;4932480;29;20446;-74
2021/09/13 00:47:28;;;;;;;9.10;6.50;;;15.90;91.00;;;;;;4933828;29;20512;-75
2021/09/13 00:49:54;;;;;;;11.73;9.37;;;15.90;91.20;;;;;;4933800;29;20465;-74
2021/09/13 00:52:20;;;;;;;11.77;7.50;;;15.90;91.20;;;;;;4932690;29;20174;-73
2021/09/13 00:54:46;;;;;;;8.07;6.60;;;15.90;91.10;;;;;;4933661;29;20206;-74
2021/09/13 00:57:13;;;;;;;10.07;6.60;;;15.90;91.10;;;;;;4933978;29;20445;-73
2021/09/13 00:59:40;;;;;;;8.20;6.30;;;15.90;91.00;;;;;;4933939;29;20409;-74
2021/09/13 01:02:06;;;;;;;11.87;6.47;;;15.90;91.00;;;;;;4933981;29;20753;-73
2021/09/13 01:04:32;;;;;;;6.67;5.23;;;15.90;90.90;;;;;;4933238;29;20182;-73
2021/09/13 01:06:58;;;;;;;6.90;5.40;;;15.90;90.90;;;;;;4933404;29;20426;-73
2021/09/13 01:09:24;;;;;;;7.60;5.60;;;15.90;90.80;;;;;;4934886;29;20252;-73
2021/09/13 01:11:50;;;;;;;7.83;5.80;;;15.80;91.00;;;;;;4933970;29;20402;-74
2021/09/13 01:14:16;;;;;;;7.63;5.67;;;15.80;91.00;;;;;;4932681;29;20940;-74
2021/09/13 01:16:42;;;;;;;8.13;5.10;;;15.70;91.00;;;;;;4916854;29;20414;-73
2021/09/13 01:19:08;;;;;;;7.43;6.07;;;15.70;91.00;;;;;;4932280;29;20989;-73
2021/09/13 01:21:38;;;;;;;6.37;5.50;;;15.70;91.00;;;;;;4932314;29;20464;-73
2021/09/13 01:24:06;;;;;;;9.20;5.93;;;15.60;91.10;;;;;;4932974;29;20217;-74
2021/09/13 01:26:33;;;;;;;8.60;5.60;;;15.60;91.30;;;;;;4935381;29;20817;-72
2021/09/13 01:29:00;;;;;;;8.43;5.83;;;15.50;91.40;;;;;;4942853;29;20422;-72
2021/09/13 01:31:31;;;;;;;7.00;5.33;;;15.50;91.60;;;;;;4927011;29;20421;-73
2021/09/13 01:33:57;;;;;;;8.40;6.10;;;15.50;91.60;;;;;;4941611;29;20444;-73
2021/09/13 01:36:28;;;;;;;9.43;6.40;;;15.50;91.50;;;;;;4942344;29;20177;-73
2021/09/13 01:38:57;;;;;;;8.27;7.13;;;15.50;91.50;;;;;;4942601;29;20420;-73
2021/09/13 01:41:22;;;;;;;5.13;4.63;;;15.60;91.40;;;;;;4935124;29;20413;-74
2021/09/13 01:43:52;;;;;;;10.70;5.77;;;15.50;91.30;;;;;;4931755;29;20216;-74
2021/09/13 01:46:18;;;;;;;6.83;5.60;;;15.50;91.30;;;;;;4932006;29;20936;-74
2021/09/13 01:48:48;;;;;;;8.90;5.90;;;15.40;91.40;;;;;;4932164;29;20264;-74
2021/09/13 01:51:14;;;;;;;10.33;5.90;;;15.40;91.50;;;;;;4932896;29;20482;-74
2021/09/13 01:53:41;;;;;;;9.83;6.03;;;15.40;91.50;;;;;;4915906;29;20198;-74
2021/09/13 01:56:07;;;;;;;9.20;6.43;;;15.40;91.50;;;;;;4949371;23;20607;-73
2021/09/13 01:58:33;;;;;;;6.73;5.53;;;15.50;91.50;;;;;;4931512;29;20489;-73
2021/09/13 02:00:59;;;;;;;6.10;5.50;;;15.50;91.50;;;;;;4931680;29;20213;-74
2021/09/13 02:03:29;;;;;;;10.57;7.80;;;15.40;91.30;;;;;;4943113;29;20426;-74
2021/09/13 02:05:55;;;;;;;9.07;7.30;;;15.40;91.40;;;;;;4940679;29;20441;-74
2021/09/13 02:08:24;;;;;;;9.77;7.73;;;15.40;91.50;;;;;;4910934;29;20171;-74
2021/09/13 02:10:49;;;;;;;7.90;5.33;;;15.40;91.40;;;;;;4911805;29;20801;-74
2021/09/13 02:13:16;;;;;;;9.33;5.67;;;15.40;91.40;;;;;;4912584;29;20167;-74
2021/09/13 02:15:42;;;;;;;12.30;7.50;;;15.30;91.30;;;;;;4914767;29;20521;-75
2021/09/13 02:18:10;;;;;;;8.53;6.73;;;15.30;91.40;;;;;;4912006;29;20771;-74
2021/09/13 02:20:45;;;;;;;10.90;5.83;;;15.30;91.50;;;;;;4920484;29;20423;-73
2021/09/13 02:23:10;;;;;;;6.90;5.13;;;15.30;91.50;;;;;;4925711;29;20414;-74
2021/09/13 02:25:36;;;;;;;6.13;4.87;;;15.30;91.50;;;;;;4921041;29;20213;-74
2021/09/13 02:28:02;;;;;;;8.30;6.03;;;15.30;91.50;;;;;;4929172;29;20645;-74
2021/09/13 02:30:28;;;;;;;6.90;5.17;;;15.20;91.40;;;;;;4913059;29;20468;-74
2021/09/13 02:32:54;;;;;;;6.60;5.03;;;15.20;91.40;;;;;;4930790;29;20423;-73
2021/09/13 02:35:20;;;;;;;8.73;6.17;;;15.10;91.60;;;;;;4919961;29;20194;-73
2021/09/13 02:37:45;;;;;;;14.13;11.00;;;15.10;92.00;;;;;;4936289;29;20198;-73
2021/09/13 02:40:11;;;;;;;6.83;5.57;;;15.10;91.60;;;;;;4937161;29;20181;-74
2021/09/13 02:42:37;;;;;;;9.73;5.90;;;15.10;91.60;;;;;;4931784;29;20423;-74
2021/09/13 02:45:05;;;;;;;7.07;5.70;;;15.10;91.60;;;;;;4916722;29;20900;-74
2021/09/13 02:47:32;;;;;;;8.60;6.43;;;15.10;91.60;;;;;;4934205;29;20635;-74
2021/09/13 02:49:58;;;;;;;6.67;4.90;;;15.10;91.50;;;;;;4934737;29;20516;-73
2021/09/13 02:52:25;;;;;;;8.30;6.63;;;15.10;91.50;;;;;;4935263;29;20466;-74
2021/09/13 02:54:51;;;;;;;12.83;8.00;;;15.10;91.50;;;;;;4934175;29;20421;-74
2021/09/13 02:57:17;;;;;;;10.07;8.00;;;15.10;91.40;;;;;;4935494;29;20206;-74
2021/09/13 02:59:47;;;;;;;10.63;8.03;;;15.10;91.40;;;;;;4933567;29;20643;-74
2021/09/13 03:02:13;;;;;;;7.80;5.27;;;15.10;91.40;;;;;;4934113;29;20503;-74
2021/09/13 03:04:39;;;;;;;9.67;6.00;;;15.10;91.40;;;;;;4933912;29;20486;-74
2021/09/13 03:07:05;;;;;;;10.70;6.20;;;15.00;91.30;;;;;;4933666;29;20438;-74
2021/09/13 03:09:30;;;;;;;11.13;5.50;;;15.00;91.50;;;;;;4934850;29;20204;-74
2021/09/13 03:11:56;;;;;;;9.30;6.30;;;15.00;91.60;;;;;;4934731;29;20172;-74
2021/09/13 03:14:22;;;;;;;12.10;5.73;;;15.00;91.60;;;;;;4933763;29;20168;-74
2021/09/13 03:16:50;;;;;;;9.77;6.30;;;15.00;91.60;;;;;;4917956;29;20201;-74
2021/09/13 03:19:16;;;;;;;7.17;6.47;;;14.90;91.70;;;;;;4935228;29;20169;-74
2021/09/13 03:21:42;;;;;;;10.67;6.27;;;15.00;91.80;;;;;;4936539;29;20479;-73
2021/09/13 03:24:10;;;;;;;7.23;5.80;;;14.90;91.60;;;;;;4933749;29;20424;-74
2021/09/13 03:26:36;;;;;;;9.53;7.00;;;14.90;91.80;;;;;;4933368;29;20446;-73
2021/09/13 03:29:02;;;;;;;9.30;6.43;;;14.80;91.80;;;;;;4934860;29;20187;-74
2021/09/13 03:31:28;;;;;;;9.73;5.90;;;14.80;91.90;;;;;;4932988;29;20472;-74
2021/09/13 03:33:54;;;;;;;9.80;6.43;;;14.80;92.00;;;;;;4934784;29;20442;-74
2021/09/13 03:36:20;;;;;;;7.07;6.20;;;14.80;91.90;;;;;;4933011;29;20211;-74
2021/09/13 03:38:46;;;;;;;9.13;6.50;;;14.80;92.10;;;;;;4933333;29;20603;-74
2021/09/13 03:41:17;;;;;;;8.97;7.30;;;14.80;92.10;;;;;;4934397;29;20407;-74
2021/09/13 03:43:43;;;;;;;12.37;6.33;;;14.70;92.00;;;;;;4917459;29;20528;-75
2021/09/13 03:46:09;;;;;;;10.07;6.67;;;14.70;92.10;;;;;;4917190;29;20439;-74
2021/09/13 03:48:48;;;;;;;9.83;6.50;;;14.80;92.50;;;;;;4933630;29;20819;-74
2021/09/13 03:51:14;;;;;;;12.07;6.67;;;14.70;92.00;;;;;;4932685;29;20450;-74
2021/09/13 03:53:40;;;;;;;7.17;5.70;;;14.80;92.10;;;;;;4932953;29;20549;-74
2021/09/13 03:56:08;;;;;;;9.13;7.27;;;14.80;92.00;;;;;;4932750;29;20263;-74
2021/09/13 03:58:34;;;;;;;8.87;6.37;;;14.80;91.90;;;;;;4932980;29;20441;-74
2021/09/13 04:01:00;;;;;;;7.97;6.53;;;14.80;91.80;;;;;;4932677;29;20765;-74
2021/09/13 04:03:49;;;;;;;7.70;6.33;;;14.80;91.80;;;;;;4933032;29;20179;-74
2021/09/13 04:12:23;;;;;;;7.70;6.63;;;14.70;91.90;;;;;;4932697;29;20840;-74
2021/09/13 04:15:09;;;;;;;11.77;7.33;;;14.70;92.00;;;;;;4926950;29;20935;-75
2021/09/13 04:17:54;;;;;;;9.67;6.30;;;14.70;92.10;;;;;;4933231;29;20553;-74
2021/09/13 04:20:22;;;;;;;8.93;7.00;;;14.70;92.10;;;;;;4933444;29;20520;-74
2021/09/13 04:23:04;;;;;;;8.47;6.63;;;14.60;92.10;;;;;;4934886;29;20796;-74
2021/09/13 04:25:56;;;;;;;10.00;7.37;;;14.60;92.20;;;;;;4935107;29;20438;-74
2021/09/13 04:28:48;;;;;;;10.07;7.00;;;14.50;92.30;;;;;;4935410;29;20476;-74
2021/09/13 04:31:32;;;;;;;9.53;7.37;;;14.50;92.40;;;;;;4932441;29;20415;-73
2021/09/13 04:34:08;;;;;;;9.80;6.90;;;14.50;92.40;;;;;;4947273;29;20935;-74
2021/09/13 04:37:00;;;;;;;9.93;6.53;;;14.50;92.40;;;;;;4920463;29;20437;-74
2021/09/13 04:39:54;;;;;;;14.07;7.47;;;14.50;92.80;;;;;;4933364;29;20422;-74
2021/09/13 04:42:38;;;;;;;11.87;7.53;;;14.50;92.50;;;;;;4933744;29;20416;-73
2021/09/13 04:45:26;;;;;;;8.20;6.67;;;14.50;92.70;;;;;;4933847;29;20444;-73
2021/09/13 04:48:15;;;;;;;11.07;5.40;;;14.50;92.40;;;;;;4932341;29;20413;-74
2021/09/13 04:50:54;;;;;;;9.17;7.07;;;14.40;92.50;;;;;;4932034;29;20471;-74
2021/09/13 04:53:34;;;;;;;7.77;5.53;;;14.40;92.50;;;;;;4932295;29;20421;-74
2021/09/13 04:56:00;;;;;;;13.03;8.23;;;14.40;92.50;;;;;;4931970;29;21021;-74
2021/09/13 04:58:25;;;;;;;8.83;6.20;;;14.40;92.50;;;;;;4932150;29;20161;-74
2021/09/13 05:00:51;;;;;;;12.13;5.77;;;14.40;92.50;;;;;;4931270;29;20185;-74
2021/09/13 05:03:17;;;;;;;11.80;6.87;;;14.40;92.50;;;;;;4929420;29;20567;-73
2021/09/13 05:05:42;;;;;;;9.53;7.73;;;14.30;92.60;;;;;;4931867;29;20234;-73
2021/09/13 05:08:08;;;;;;;8.87;6.30;;;14.40;92.70;;;;;;4933162;29;20175;-74
2021/09/13 05:10:34;;;;;;;11.13;6.60;;;14.40;92.70;;;;;;4931819;29;20485;-74
2021/09/13 05:13:02;;;;;;;9.57;7.00;;;14.50;92.50;;;;;;4931438;29;20544;-73
2021/09/13 05:15:28;;;;;;;7.90;6.73;;;14.40;92.40;;;;;;4915507;29;20846;-72
2021/09/13 05:17:54;;;;;;;7.60;6.03;;;14.40;92.30;;;;;;4930113;29;20506;-74
2021/09/13 05:20:20;;;;;;;10.73;6.63;;;14.50;92.60;;;;;;4915812;29;20184;-73
2021/09/13 05:22:46;;;;;;;9.40;6.37;;;14.50;92.10;;;;;;4928236;29;20428;-73
2021/09/13 05:25:12;;;;;;;12.10;7.17;;;14.50;92.00;;;;;;4912657;29;20175;-73
2021/09/13 05:27:38;;;;;;;10.30;7.33;;;14.50;91.90;;;;;;4925667;29;20561;-73
2021/09/13 05:30:05;;;;;;;10.47;6.67;;;14.50;91.90;;;;;;4919657;29;20289;-71
2021/09/13 05:32:33;;;;;;;9.40;6.30;;;14.50;91.80;;;;;;4930082;29;20235;-72
2021/09/13 05:35:00;;;;;;;9.40;6.93;;;14.50;91.60;;;;;;4926577;29;20445;-74
2021/09/13 05:37:25;;;;;;;10.57;7.20;;;14.50;91.70;;;;;;4932854;29;20472;-72
2021/09/13 05:39:52;;;;;;;10.10;6.53;;;14.50;91.70;;;;;;4931617;29;20226;-73
2021/09/13 05:42:19;;;;;;;10.17;6.80;;;14.50;91.70;;;;;;4955382;28;20502;-73
2021/09/13 05:44:46;;;;;;;8.97;6.50;;;14.60;91.60;;;;;;4932696;29;20425;-73
2021/09/13 05:47:12;;;;;;;9.23;6.33;;;14.60;91.60;;;;;;4915790;29;20541;-73
2021/09/13 05:49:38;;;;;;;8.87;6.77;;;14.70;91.50;;;;;;4928519;29;20206;-73
2021/09/13 05:52:07;;;;;;;11.20;6.83;;;14.70;91.30;;;;;;4912872;29;20535;-73
2021/09/13 05:54:38;;;;;;;8.67;7.10;;;14.70;91.30;;;;;;4913059;29;20443;-73
2021/09/13 05:57:04;;;;;;;16.63;7.80;;;14.70;91.20;;;;;;4912475;29;20454;-71
2021/09/13 05:59:30;;;;;;;9.80;7.60;;;14.70;91.40;;;;;;4913980;29;20794;-74
2021/09/13 06:02:04;;;;;;;10.40;6.00;;;14.80;91.30;;;;;;4928704;29;20724;-73
2021/09/13 06:04:32;;;;;;;6.53;5.60;;;14.90;91.00;;;;;;4912631;29;20794;-73
2021/09/13 06:06:59;;;;;;;9.57;6.77;;;14.90;90.80;;;;;;4940697;29;20523;-74
2021/09/13 06:09:26;;;;;;;14.07;6.77;;;15.00;90.50;;;;;;4936143;29;20972;-73
2021/09/13 06:11:51;;;;;;;13.13;7.13;;;15.00;90.40;;;;;;4916225;29;20435;-72
2021/09/13 06:14:17;;;;;;;12.77;7.73;;;14.90;90.40;;;;;;4932999;29;20173;-73
2021/09/13 06:16:43;;;;;;;11.07;7.03;;;15.00;90.50;;;;;;4934885;29;20591;-71
2021/09/13 06:19:11;;;;;;;10.33;6.37;;;15.10;90.50;;;;;;4935581;29;20228;-72
2021/09/13 06:21:37;;;;;;;8.97;6.60;;;15.10;89.80;;;;;;4934494;29;20851;-72
2021/09/13 06:24:05;;;;;;;9.90;6.60;;;15.20;90.00;;;;;;4935022;29;20173;-73
2021/09/13 06:26:34;;;;;;;8.10;6.80;;;15.20;89.80;;;;;;4934903;29;20441;-73
2021/09/13 06:29:02;;;;;;;9.27;6.60;;;15.20;89.40;;;;;;4935180;29;20532;-73
2021/09/13 06:31:28;;;;;;;7.43;6.50;;;15.30;89.60;;;;;;4935021;29;21129;-72
2021/09/13 06:33:55;;;;;;;7.57;6.70;;;15.40;88.70;;;;;;4936580;29;20414;-72
2021/09/13 06:36:21;;;;;;;11.17;8.60;;;15.50;89.80;;;;;;4937232;29;20940;-73
2021/09/13 06:38:48;;;;;;;12.57;7.43;;;15.60;88.20;;;;;;4934912;29;20173;-73
2021/09/13 06:41:14;;;;;;;8.80;7.03;;;15.70;88.00;;;;;;4934527;29;20418;-73
2021/09/13 06:43:43;;;;;;;10.77;7.03;;;15.80;87.00;;;;;;4935916;29;20181;-72
2021/09/13 06:46:48;;;;;;;11.80;6.93;;;15.90;86.70;;;;;;4934733;29;20568;-72
2021/09/13 06:49:03;;;;;;;16.05;6.75;;;16.00;86.60;;;;;;4934650;29;20528;-72
2021/09/13 06:51:29;;;;;;;9.20;6.80;;;16.00;86.00;;;;;;4934335;29;20539;-74
2021/09/13 06:53:55;;;;;;;10.30;7.23;;;16.10;85.80;;;;;;4919554;29;20616;-73
2021/09/13 06:56:20;;;;;;;13.03;7.47;;;16.10;86.00;;;;;;4934799;29;20698;-73
2021/09/13 06:58:46;;;;;;;8.53;7.00;;;16.20;84.80;;;;;;4939823;29;20199;-72
2021/09/13 07:01:12;;;;;;;15.63;7.10;;;16.20;84.50;;;;;;4946799;29;20536;-72
2021/09/13 07:03:39;;;;;;;11.00;7.47;;;16.10;84.60;;;;;;4945095;29;20572;-72
2021/09/13 07:06:05;;;;;;;9.93;7.70;;;16.20;84.90;;;;;;4936710;29;20193;-72
2021/09/13 07:08:30;;;;;;;13.67;8.10;;;16.30;84.90;;;;;;4937016;29;20539;-71
2021/09/13 07:10:56;;;;;;;10.47;8.33;;;16.50;84.50;;;;;;4936720;29;20194;-72
2021/09/13 07:13:23;;;;;;;12.37;7.83;;;16.70;83.50;;;;;;4936556;29;20174;-72
2021/09/13 07:15:48;;;;;;;13.07;8.23;;;16.80;82.80;;;;;;4949235;29;21015;-72
2021/09/13 07:18:16;;;;;;;11.80;7.50;;;17.10;82.10;;;;;;4950800;29;20170;-73
2021/09/13 07:20:43;;;;;;;17.07;8.37;;;17.30;81.60;;;;;;4948088;29;20414;-73
2021/09/13 07:23:09;;;;;;;17.40;9.27;;;17.70;79.40;;;;;;4936776;29;20934;-73
2021/09/13 07:25:35;;;;;;;11.83;8.10;;;17.80;78.10;;;;;;4933544;29;20196;-73
2021/09/13 07:28:00;;;;;;;15.30;8.27;;;17.80;77.30;;;;;;4934930;29;20695;-73
2021/09/13 07:30:26;;;;;;;11.60;7.53;;;17.90;78.90;;;;;;4934952;29;20319;-73
2021/09/13 07:32:53;;;;;;;14.23;7.53;;;18.10;78.10;;;;;;4935000;29;20197;-73
2021/09/13 07:35:18;;;;;;;9.20;7.30;;;18.70;77.30;;;;;;4935164;29;20942;-72
2021/09/13 07:37:44;;;;;;;11.40;7.50;;;19.30;74.40;;;;;;4934935;29;20505;-72
2021/09/13 07:40:11;;;;;;;10.13;8.10;;;19.80;71.60;;;;;;4935032;29;20271;-73
2021/09/13 07:42:38;;;;;;;12.23;7.70;;;20.20;68.90;;;;;;4935639;29;20190;-72
2021/09/13 07:45:04;;;;;;;12.57;8.70;;;20.20;68.60;;;;;;4917857;29;20425;-72
2021/09/13 07:47:31;;;;;;;11.47;7.97;;;20.30;68.50;;;;;;4935180;29;20444;-73
2021/09/13 07:49:57;;;;;;;9.30;7.90;;;20.60;67.70;;;;;;4934225;29;20457;-72
2021/09/13 07:52:23;;;;;;;14.37;7.27;;;20.90;66.90;;;;;;4934807;29;20421;-72
2021/09/13 07:54:49;;;;;;;11.97;8.10;;;21.30;66.40;;;;;;4933275;29;20429;-72
2021/09/13 07:57:14;;;;;;;14.17;7.57;;;22.20;63.00;;;;;;4934426;29;20626;-71
2021/09/13 07:59:40;;;;;;;17.97;8.20;;;22.80;59.90;;;;;;4934784;29;20240;-72
2021/09/13 08:02:06;;;;;;;8.63;7.03;;;23.60;58.90;;;;;;4934506;29;20248;-72
2021/09/13 08:04:32;;;;;;;10.67;7.60;;;24.30;56.80;;;;;;4948508;23;20304;-80
2021/09/13 08:06:58;;;;;;;13.00;7.80;;;24.90;55.30;;;;;;4906270;29;20565;-80
2021/09/13 08:09:23;;;;;;;13.30;8.40;;;25.40;53.40;;;;;;4906053;29;20191;-78
2021/09/13 08:11:49;;;;;;;14.57;9.70;;;25.90;52.10;;;;;;4918658;29;20604;-79
2021/09/13 08:14:15;;;;;;;14.73;10.07;;;26.40;51.30;;;;;;4908500;29;20554;-80
2021/09/13 08:16:42;;;;;;;13.47;9.47;;;26.90;49.00;;;;;;4903029;29;20496;-79
2021/09/13 08:19:09;;;;;;;14.87;9.63;;;27.30;48.90;;;;;;4916549;29;20488;-80
2021/09/13 08:21:39;;;;;;;15.40;9.50;;;27.60;47.60;;;;;;4901647;29;20794;-79
2021/09/13 08:24:07;;;;;;;19.03;10.00;;;28.00;46.60;;;;;;4921569;29;20469;-79
2021/09/13 08:26:34;;;;;;;14.37;10.40;;;28.00;45.50;;;;;;4919506;29;20429;-79
2021/09/13 08:28:59;;;;;;;13.67;9.80;;;28.20;46.00;;;;;;4919695;29;20458;-79
2021/09/13 08:31:25;;;;;;;14.80;10.63;;;28.40;46.20;;;;;;4921524;29;20510;-79
2021/09/13 08:33:51;;;;;;;17.67;10.17;;;28.80;44.60;;;;;;4900916;29;20206;-80
2021/09/13 08:36:17;;;;;;;19.40;13.53;;;28.80;44.90;;;;;;4902284;29;20171;-80
2021/09/13 08:38:43;;;;;;;18.40;12.70;;;28.90;45.10;;;;;;4900978;29;20179;-78
2021/09/13 08:41:09;;;;;;;19.97;13.93;;;29.20;43.40;;;;;;4899574;29;20172;-78
2021/09/13 08:43:35;;;;;;;14.83;12.97;;;28.90;43.90;;;;;;4899846;29;20450;-78
2021/09/13 08:48:42;;;;;;;17.30;12.47;;;29.40;43.60;;;;;;4901568;29;20422;-79
2021/09/13 08:53:46;;;;;;;19.23;12.93;;;30.50;42.10;;;;;;4901941;29;20542;-82
2021/09/13 08:56:17;;;;;;;17.37;13.07;;;30.90;40.90;;;;;;4902103;29;20448;-79
2021/09/13 08:58:45;;;;;;;19.53;13.17;;;31.00;40.70;;;;;;4902057;29;20522;-79
2021/09/13 09:01:12;;;;;;;24.17;13.70;;;31.10;40.20;;;;;;4901706;29;20764;-79
2021/09/13 09:03:43;;;;;;;17.20;13.03;;;31.30;40.00;;;;;;4904804;29;20457;-80
2021/09/13 09:06:35;;;;;;;21.90;13.50;;;31.80;39.00;;;;;;4940021;29;20476;-79
2021/09/13 09:09:06;;;;;;;16.57;14.23;;;32.20;37.90;;;;;;4938442;29;20509;-79
2021/09/13 09:12:01;;;;;;;15.47;12.40;;;32.20;37.70;;;;;;4923685;29;20469;-79
2021/09/13 09:14:33;;;;;;;17.20;14.30;;;32.30;37.20;;;;;;4924640;29;20477;-80
2021/09/13 09:17:04;;;;;;;18.93;15.00;;;31.90;38.10;;;;;;4918167;29;20386;-80
2021/09/13 09:19:30;;;;;;;20.93;15.03;;;31.40;38.20;;;;;;4902645;29;20422;-80
2021/09/13 09:21:57;;;;;;;21.83;14.20;;;31.20;39.40;;;;;;4904831;29;20429;-79
2021/09/13 09:24:25;;;;;;;19.30;13.70;;;31.60;39.00;;;;;;4905213;29;20695;-80
2021/09/13 09:27:05;;;;;;;18.30;13.83;;;32.00;37.50;;;;;;4903743;29;20510;-80
2021/09/13 09:29:33;;;;;;;16.83;14.17;;;32.00;37.60;;;;;;4905335;29;20482;-80
2021/09/13 09:32:00;;;;;;;25.27;16.10;;;32.50;37.20;;;;;;4905555;29;20430;-80
2021/09/13 09:34:29;;;;;;;20.90;14.93;;;32.50;36.80;;;;;;4906704;29;20439;-80
2021/09/13 09:36:58;;;;;;;20.90;15.57;;;32.10;37.30;;;;;;4905098;29;20420;-80
2021/09/13 09:39:38;;;;;;;19.47;15.40;;;32.40;37.60;;;;;;4904634;29;20422;-79
2021/09/13 09:42:11;;;;;;;21.43;15.97;;;32.70;36.20;;;;;;4901587;29;20547;-79
2021/09/13 09:44:41;;;;;;;18.20;16.00;;;32.80;36.30;;;;;;4905710;29;20447;-79
2021/09/13 09:47:12;;;;;;;18.97;15.37;;;32.50;36.70;;;;;;4902743;29;20412;-79
2021/09/13 09:49:55;;;;;;;21.83;16.07;;;32.40;37.30;;;;;;4920189;29;20455;-80
2021/09/13 09:52:38;;;;;;;22.03;17.10;;;32.40;36.80;;;;;;4906095;29;20415;-79
2021/09/13 09:55:27;;;;;;;21.63;17.10;;;32.30;36.90;;;;;;4905051;29;20442;-79
2021/09/13 09:58:10;;;;;;;22.50;16.27;;;32.30;36.90;;;;;;4903745;29;20429;-79
2021/09/13 10:00:37;;;;;;;21.30;14.80;;;32.60;36.70;;;;;;4919694;29;20455;-79
2021/09/13 10:03:04;;;;;;;19.37;15.57;;;32.50;36.60;;;;;;4916213;29;20426;-79
2021/09/13 10:05:31;;;;;;;21.63;16.67;;;32.30;36.70;;;;;;4907266;29;20457;-80
2021/09/13 10:07:57;;;;;;;17.00;15.20;;;32.10;36.80;;;;;;4923168;29;20422;-80
2021/09/13 10:10:28;;;;;;;19.40;15.97;;;32.30;36.30;;;;;;4923537;29;20829;-81
2021/09/13 10:12:55;;;;;;;22.33;17.00;;;32.00;37.00;;;;;;4924458;29;20459;-80
2021/09/13 10:15:21;;;;;;;29.50;18.40;;;32.20;36.90;;;;;;4925895;29;20450;-78
2021/09/13 10:17:54;;;;;;;20.13;15.97;;;32.40;36.90;;;;;;4927005;29;20612;-78
2021/09/13 10:20:24;;;;;;;22.73;16.63;;;32.70;36.00;;;;;;4916733;29;20174;-80
2021/09/13 10:22:56;;;;;;;26.17;14.93;;;32.30;36.40;;;;;;4937104;29;20436;-80
2021/09/13 10:25:30;;;;;;;26.20;16.70;;;32.00;37.20;;;;;;4923550;29;20437;-80
2021/09/13 10:28:04;;;;;;;17.03;14.97;;;31.70;37.50;;;;;;4921974;29;20469;-79
2021/09/13 10:30:51;;;;;;;22.07;17.97;;;31.40;37.20;;;;;;4923031;29;20458;-80
2021/09/13 10:33:20;;;;;;;18.47;15.10;;;31.00;38.60;;;;;;4921404;29;20449;-79
2021/09/13 10:36:02;;;;;;;27.07;17.50;;;30.80;39.10;;;;;;4924917;29;20444;-80
2021/09/13 10:38:45;;;;;;;22.13;17.20;;;30.40;39.40;;;;;;4908989;29;20416;-79
2021/09/13 10:41:12;;;;;;;21.43;19.10;;;30.00;40.40;;;;;;4923318;29;20445;-80
2021/09/13 10:44:04;;;;;;;19.07;16.90;;;29.30;41.50;;;;;;4934182;29;20880;-80
2021/09/13 10:46:58;;;;;;;21.17;16.43;;;28.80;42.90;;;;;;4929683;29;20795;-79
2021/09/13 10:49:23;;;;;;;26.27;18.50;;;28.30;43.70;;;;;;4926154;29;20471;-80
2021/09/13 10:52:27;;;;;;;25.00;17.73;;;27.90;44.40;;;;;;4926865;29;20422;-79
2021/09/13 10:55:08;;;;;;;20.53;16.80;;;27.40;45.20;;;;;;4925372;29;20257;-78
2021/09/13 10:58:10;;;;;;;41.97;20.93;;;26.90;47.20;;;;;;4911065;29;20423;-80
2021/09/13 11:00:42;;;;;;;25.90;20.07;;;26.50;47.40;;;;;;4930816;29;20418;-79
2021/09/13 11:03:23;;;;;;;26.87;18.20;;;26.20;48.00;;;;;;4935043;29;20426;-83
2021/09/13 11:06:16;;;;;;;20.53;15.40;;;25.90;48.80;;;;;;4923927;29;20426;-79
2021/09/13 11:08:55;;;;;;;23.57;14.63;;;25.80;49.10;;;;;;4917472;29;20458;-78
2021/09/13 11:11:26;;;;;;;20.93;14.13;;;25.50;48.80;;;;;;4924811;29;20473;-79
2021/09/13 11:13:58;;;;;;;16.23;13.10;;;25.40;48.30;;;;;;4904298;29;20845;-81
2021/09/13 11:16:24;;;;;;;16.67;12.47;;;25.10;49.10;;;;;;4922228;29;20422;-79
2021/09/13 11:18:51;;;;;;;24.13;12.37;;;24.80;49.30;;;;;;4923835;29;20989;-79
2021/09/13 11:21:26;;;;;;;18.87;12.70;;;24.60;49.10;;;;;;4925218;29;20417;-81
2021/09/13 11:24:03;;;;;;;21.80;12.60;;;24.50;50.30;;;;;;4922711;29;20435;-80
2021/09/13 11:26:43;;;;;;;18.30;12.60;;;24.70;50.10;;;;;;4924044;29;20525;-80
2021/09/13 11:29:29;;;;;;;16.40;9.90;;;24.70;50.00;;;;;;4932485;29;20449;-79
2021/09/13 11:32:04;;;;;;;14.53;10.27;;;24.80;49.60;;;;;;4927894;29;20403;-80
2021/09/13 11:34:36;;;;;;;16.70;12.10;;;24.80;49.10;;;;;;4929563;29;20449;-80
2021/09/13 11:37:26;;;;;;;16.63;12.20;;;24.60;49.10;;;;;;4909830;29;20454;-80
2021/09/13 11:40:00;;;;;;;14.77;9.70;;;24.40;50.00;;;;;;4910818;29;20423;-80
2021/09/13 11:42:29;;;;;;;15.57;9.73;;;24.50;49.90;;;;;;4920758;29;20418;-80
2021/09/13 11:45:04;;;;;;;11.37;9.43;;;24.60;49.10;;;;;;4926080;29;20443;-82
2021/09/13 11:47:31;;;;;;;13.43;10.30;;;24.70;49.50;;;;;;4927457;29;20416;-81
2021/09/13 11:50:00;;;;;;;16.03;10.47;;;24.80;48.90;;;;;;4923058;29;20542;-80
2021/09/13 11:52:28;;;;;;;13.97;11.83;;;24.90;48.60;;;;;;4923791;29;20422;-81
2021/09/13 11:55:02;;;;;;;16.60;11.30;;;24.80;48.80;;;;;;4923902;29;20940;-80
2021/09/13 11:57:35;;;;;;;12.80;8.67;;;24.70;48.10;;;;;;4925842;29;20948;-81
2021/09/13 12:00:00;;;;;;;8.53;7.50;;;24.80;48.60;;;;;;4924382;29;20959;-81
2021/09/13 12:02:28;;;;;;;13.87;7.37;;;24.70;47.90;;;;;;4926188;29;20435;-80
2021/09/13 12:04:55;;;;;;;14.37;7.20;;;24.60;48.10;;;;;;4923903;29;20214;-79
2021/09/13 12:07:22;;;;;;;7.00;6.20;;;24.60;47.70;;;;;;4923918;29;20914;-81
2021/09/13 12:09:50;;;;;;;5.97;5.37;;;24.50;47.70;;;;;;4921342;29;20458;-80
2021/09/13 12:12:20;;;;;;;6.67;5.00;;;24.40;46.80;;;;;;4922681;29;20956;-80
2021/09/13 12:14:47;;;;;;;8.80;5.20;;;24.30;45.30;;;;;;4921946;29;20442;-80
2021/09/13 12:17:17;;;;;;;7.23;4.93;;;24.20;45.40;;;;;;4922248;29;20430;-80
2021/09/13 12:19:49;;;;;;;12.43;6.47;;;24.10;45.40;;;;;;4924203;29;20430;-81
2021/09/13 12:22:16;;;;;;;6.03;5.43;;;23.90;46.40;;;;;;4908191;29;20456;-80
2021/09/13 12:24:45;;;;;;;7.77;6.23;;;23.80;46.80;;;;;;4925989;29;20442;-83
2021/09/13 12:27:18;;;;;;;11.00;5.10;;;23.80;46.30;;;;;;4923392;29;20425;-81
2021/09/13 12:29:57;;;;;;;7.20;5.80;;;23.80;47.00;;;;;;4922013;29;20557;-83
2021/09/13 12:32:29;;;;;;;8.03;5.87;;;23.90;47.30;;;;;;4925201;29;20433;-82
2021/09/13 12:35:01;;;;;;;7.03;6.27;;;23.90;46.70;;;;;;4921018;29;20541;-81
2021/09/13 12:37:38;;;;;;;10.80;7.30;;;23.90;46.80;;;;;;4926372;29;20825;-81
2021/09/13 12:40:16;;;;;;;11.07;6.20;;;23.80;46.90;;;;;;4921949;29;20406;-80
2021/09/13 12:42:57;;;;;;;8.13;6.97;;;23.90;47.40;;;;;;4922000;29;20420;-80
2021/09/13 12:45:33;;;;;;;8.23;6.90;;;23.80;47.50;;;;;;4922095;29;20460;-81
2021/09/13 12:48:04;;;;;;;9.20;6.60;;;23.80;47.80;;;;;;4922867;29;20410;-81
2021/09/13 12:50:39;;;;;;;11.47;8.37;;;23.60;48.10;;;;;;4922550;29;20502;-81
2021/09/13 12:53:17;;;;;;;8.93;6.40;;;23.60;47.80;;;;;;4922398;29;20422;-79
2021/09/13 12:55:44;;;;;;;14.03;7.37;;;23.50;48.00;;;;;;4920291;29;20425;-81
2021/09/13 12:58:30;;;;;;;13.17;8.50;;;23.60;48.40;;;;;;4921095;29;20426;-80
2021/09/13 13:00:58;;;;;;;9.23;6.63;;;23.70;48.30;;;;;;4918633;29;20422;-80
2021/09/13 13:03:24;;;;;;;9.97;6.60;;;23.70;48.30;;;;;;4918351;29;20431;-81